Time;durP1;ratioP1;P1;durP2;ratioP2;P2;SDS_P1;SDS_P2;PMS_P1;PMS_P2;Temp;Humidity;BMP_temperature;BMP_pressure;BME280_temperature;BME280_humidity;BME280_pressure;Samples;Min_cycle;Max_cycle;Signal;HPM_P1;HPM_P2
2022/01/07 00:01:13;;;;;;;36.47;12.10;;;;;;;-1.13;100.00;96380.03;5073322;28;20062;-73
2022/01/07 00:03:38;;;;;;;;;;;;;;;-1.06;100.00;96370.69;5072144;28;20079;-73
2022/01/07 00:06:04;;;;;;;31.98;9.23;;;;;;;-0.98;100.00;96373.28;5072463;28;19924;-72
2022/01/07 00:08:30;;;;;;;39.63;13.18;;;;;;;-1.04;100.00;96373.13;5073321;28;20036;-74
2022/01/07 00:10:58;;;;;;;34.22;11.05;;;;;;;-0.94;100.00;96374.59;5072974;28;20041;-73
2022/01/07 00:13:24;;;;;;;37.28;11.07;;;;;;;-1.15;100.00;96369.88;5072756;28;20124;-74
2022/01/07 00:15:49;;;;;;;37.78;10.73;;;;;;;-1.13;100.00;96369.69;5072683;28;20415;-74
2022/01/07 00:18:15;;;;;;;43.97;11.32;;;;;;;-1.25;100.00;96376.13;5072570;28;20041;-73
2022/01/07 00:20:41;;;;;;;43.72;11.50;;;;;;;-1.13;100.00;96374.88;5072580;28;20056;-73
2022/01/07 00:23:07;;;;;;;32.13;10.20;;;;;;;-1.13;100.00;96369.69;5072824;28;20120;-73
2022/01/07 00:25:33;;;;;;;32.83;11.23;;;;;;;-1.15;100.00;96356.97;5072470;28;20051;-73
2022/01/07 00:28:02;;;;;;;30.95;10.40;;;;;;;-1.23;100.00;96353.56;5073647;28;20429;-72
2022/01/07 00:30:28;;;;;;;27.88;9.45;;;;;;;-1.22;100.00;96356.00;5072665;28;20492;-73
2022/01/07 00:32:57;;;;;;;28.38;9.77;;;;;;;-1.15;100.00;96363.91;5072495;28;20075;-73
2022/01/07 00:35:25;;;;;;;32.35;10.25;;;;;;;-1.19;100.00;96357.44;5072531;28;20049;-73
2022/01/07 00:37:51;;;;;;;29.83;10.82;;;;;;;-1.01;100.00;96363.28;5072873;28;20096;-73
2022/01/07 00:40:19;;;;;;;30.33;8.98;;;;;;;-1.19;100.00;96352.28;5073364;28;20068;-73
2022/01/07 00:42:49;;;;;;;27.83;8.98;;;;;;;-1.29;100.00;96354.19;5076802;28;20053;-73
2022/01/07 00:45:17;;;;;;;28.48;8.40;;;;;;;-1.20;100.00;96358.41;5075562;28;20070;-73
2022/01/07 00:47:43;;;;;;;28.45;9.68;;;;;;;-1.61;100.00;96360.91;5076339;28;20036;-73
2022/01/07 00:50:10;;;;;;;24.95;7.65;;;;;;;-1.48;100.00;96350.91;5076112;28;20400;-73
2022/01/07 00:52:36;;;;;;;22.63;7.65;;;;;;;-1.61;100.00;96356.53;5075941;28;20040;-73
2022/01/07 00:55:03;;;;;;;24.77;8.13;;;;;;;-1.45;100.00;96352.41;5075923;28;20063;-73
2022/01/07 00:57:31;;;;;;;32.30;8.48;;;;;;;-1.53;100.00;96353.16;5074682;28;20084;-73
2022/01/07 00:59:57;;;;;;;28.05;8.32;;;;;;;-1.47;100.00;96337.06;5079058;28;20145;-74
2022/01/07 01:02:24;;;;;;;28.75;9.52;;;;;;;-1.38;100.00;96343.84;5080173;28;20045;-73
2022/01/07 01:04:50;;;;;;;33.75;10.50;;;;;;;-1.33;100.00;96339.03;5076866;28;20036;-74
2022/01/07 01:07:16;;;;;;;26.90;8.85;;;;;;;-1.39;100.00;96334.50;5076477;28;20120;-72
2022/01/07 01:09:42;;;;;;;29.98;9.27;;;;;;;-1.30;100.00;96337.09;5076124;28;20151;-73
2022/01/07 01:12:11;;;;;;;32.35;9.45;;;;;;;-1.06;100.00;96340.53;5074696;28;20052;-73
2022/01/07 01:14:41;;;;;;;26.83;8.40;;;;;;;-1.03;100.00;96339.38;5075815;28;20090;-74
2022/01/07 01:17:10;;;;;;;29.45;9.32;;;;;;;-1.33;100.00;96339.03;5075039;28;20049;-73
2022/01/07 01:19:37;;;;;;;27.33;9.00;;;;;;;-1.25;100.00;96332.25;5082070;28;20041;-73
2022/01/07 01:22:04;;;;;;;30.23;8.87;;;;;;;-0.97;100.00;96343.09;5093994;28;20045;-73
2022/01/07 01:24:32;;;;;;;26.35;8.43;;;;;;;-1.02;100.00;96330.69;5078744;28;20060;-73
2022/01/07 01:26:58;;;;;;;;;;;;;;;-1.06;100.00;96334.56;5076687;28;20044;-73
2022/01/07 01:29:24;;;;;;;25.90;8.13;;;;;;;-1.08;100.00;96341.63;5074323;28;19920;-73
2022/01/07 01:31:50;;;;;;;22.52;8.18;;;;;;;-1.01;100.00;96342.63;5074304;28;20369;-73
2022/01/07 01:34:18;;;;;;;25.65;8.65;;;;;;;-0.98;100.00;96344.88;5075273;28;20044;-73
2022/01/07 01:36:45;;;;;;;;;;;;;;;-1.12;100.00;96336.00;5075905;28;20342;-73
2022/01/07 01:39:14;;;;;;;25.30;9.03;;;;;;;-1.24;100.00;96332.09;5075571;28;20387;-73
2022/01/07 01:41:42;;;;;;;24.50;8.73;;;;;;;-1.21;100.00;96320.66;5075616;28;20159;-73
2022/01/07 01:44:11;;;;;;;21.35;8.32;;;;;;;-1.16;100.00;96326.16;5073937;28;20064;-73
2022/01/07 01:46:37;;;;;;;23.00;7.95;;;;;;;-1.15;100.00;96332.94;5074663;28;20453;-73
2022/01/07 01:49:03;;;;;;;22.88;8.15;;;;;;;-1.28;100.00;96337.75;5073355;28;20059;-73
2022/01/07 01:51:29;;;;;;;21.25;7.95;;;;;;;-1.16;100.00;96332.13;5075146;28;20041;-73
2022/01/07 01:53:56;;;;;;;21.02;7.38;;;;;;;-1.22;100.00;96329.38;5079907;28;20047;-73
2022/01/07 01:56:21;;;;;;;24.27;8.50;;;;;;;-1.33;100.00;96323.56;5074902;28;20418;-74
2022/01/07 01:58:47;;;;;;;24.77;8.75;;;;;;;-1.32;100.00;96319.19;5074600;28;20045;-72
2022/01/07 02:01:15;;;;;;;24.50;9.02;;;;;;;-1.34;100.00;96321.13;5074389;28;20047;-72
2022/01/07 02:03:41;;;;;;;;;;;;;;;-1.34;100.00;96316.78;5073239;28;20144;-73
2022/01/07 02:06:06;;;;;;;19.20;7.10;;;;;;;-1.21;100.00;96315.50;5074183;28;19927;-72
2022/01/07 02:08:35;;;;;;;21.83;6.75;;;;;;;-1.27;100.00;96314.38;5072935;28;20072;-73
2022/01/07 02:11:02;;;;;;;22.40;7.38;;;;;;;-1.21;100.00;96315.50;5074414;28;20105;-73
2022/01/07 02:13:30;;;;;;;23.50;8.15;;;;;;;-1.23;100.00;96323.41;5075158;28;20142;-73
2022/01/07 02:15:56;;;;;;;20.90;7.18;;;;;;;-1.38;100.00;96310.31;5072400;28;20036;-73
2022/01/07 02:18:21;;;;;;;22.77;7.90;;;;;;;-1.17;100.00;96316.81;5073908;28;20140;-73
2022/01/07 02:20:49;;;;;;;25.25;8.15;;;;;;;-1.13;100.00;96312.91;5074111;28;20083;-73
2022/01/07 02:23:17;;;;;;;22.17;7.47;;;;;;;-1.20;100.00;96306.78;5074241;28;20207;-73
2022/01/07 02:25:43;;;;;;;22.98;8.50;;;;;;;-1.20;100.00;96301.63;5074279;28;20055;-73
2022/01/07 02:28:10;;;;;;;22.73;7.63;;;;;;;-1.29;100.00;96302.56;5074387;28;20052;-73
2022/01/07 02:30:35;;;;;;;27.10;8.27;;;;;;;-1.18;100.00;96307.44;5074139;28;20049;-73
2022/01/07 02:33:01;;;;;;;22.50;8.30;;;;;;;-1.14;100.00;96311.31;5073953;28;20052;-73
2022/01/07 02:35:31;;;;;;;27.23;9.68;;;;;;;-1.33;100.00;96308.06;5074178;28;20065;-73
2022/01/07 02:38:01;;;;;;;24.02;8.05;;;;;;;-1.17;100.00;96301.31;5073799;28;20357;-73
2022/01/07 02:40:27;;;;;;;28.10;9.43;;;;;;;-1.12;100.00;96289.53;5074081;28;20492;-73
2022/01/07 02:42:55;;;;;;;23.38;9.05;;;;;;;-1.14;100.00;96286.28;5072620;28;20094;-73
2022/01/07 02:45:21;;;;;;;28.55;9.23;;;;;;;-0.99;100.00;96283.88;5074020;28;20051;-72
2022/01/07 02:47:53;;;;;;;24.30;8.32;;;;;;;-1.08;100.00;96290.00;5071903;28;20040;-73
2022/01/07 02:50:22;;;;;;;28.70;10.05;;;;;;;-1.14;100.00;96290.66;5072173;28;20033;-73
2022/01/07 02:52:50;;;;;;;30.52;9.55;;;;;;;-0.98;100.00;96290.66;5073322;28;20392;-73
2022/01/07 02:55:19;;;;;;;26.75;8.65;;;;;;;-0.92;100.00;96284.03;5073324;28;20308;-73
2022/01/07 02:57:45;;;;;;;22.70;8.10;;;;;;;-0.84;100.00;96279.69;5073551;28;20040;-73
2022/01/07 03:00:16;;;;;;;25.33;9.18;;;;;;;-0.96;100.00;96288.75;5072474;28;20055;-72
2022/01/07 03:02:42;;;;;;;24.10;8.80;;;;;;;-0.94;100.00;96291.16;5072003;28;20047;-73
2022/01/07 03:05:08;;;;;;;25.63;8.77;;;;;;;-1.07;100.00;96273.56;5072742;28;20045;-73
2022/01/07 03:07:35;;;;;;;24.05;8.63;;;;;;;-1.19;100.00;96277.41;5074923;28;20032;-72
2022/01/07 03:10:00;;;;;;;22.83;8.95;;;;;;;-1.11;100.00;96280.81;5075924;28;20040;-73
2022/01/07 03:12:27;;;;;;;23.98;8.18;;;;;;;-1.09;100.00;96285.81;5072171;28;20105;-72
2022/01/07 03:14:53;;;;;;;21.60;8.13;;;;;;;-1.05;100.00;96279.38;5077916;28;20036;-72
2022/01/07 03:17:18;;;;;;;22.58;7.97;;;;;;;-1.05;100.00;96276.78;5076548;28;20128;-73
2022/01/07 03:19:44;;;;;;;23.95;7.80;;;;;;;-1.02;100.00;96281.66;5074330;28;20064;-73
2022/01/07 03:22:10;;;;;;;22.13;8.38;;;;;;;-1.07;100.00;96261.47;5073465;28;20070;-74
2022/01/07 03:24:38;;;;;;;20.75;7.32;;;;;;;-1.07;100.00;96271.78;5073766;28;20399;-74
2022/01/07 03:27:04;;;;;;;21.85;8.00;;;;;;;-1.09;100.00;96272.91;5074891;28;20036;-73
2022/01/07 03:29:31;;;;;;;23.02;8.25;;;;;;;-1.03;100.00;96269.69;5074535;28;20065;-74
2022/01/07 03:31:56;;;;;;;19.10;6.97;;;;;;;-0.94;100.00;96266.13;5073536;28;20052;-73
2022/01/07 03:34:22;;;;;;;24.30;8.05;;;;;;;-1.04;100.00;96259.53;5074554;28;20043;-73
2022/01/07 03:36:48;;;;;;;22.88;7.70;;;;;;;-0.90;100.00;96257.09;5074537;28;20140;-73
2022/01/07 03:39:13;;;;;;;19.65;6.55;;;;;;;-0.86;100.00;96252.41;5074808;28;20144;-72
2022/01/07 03:41:39;;;;;;;24.30;8.07;;;;;;;-1.04;100.00;96264.69;5072976;28;20049;-73
2022/01/07 03:44:05;;;;;;;20.70;7.35;;;;;;;-0.97;100.00;96260.47;5072538;28;20040;-73
2022/01/07 03:46:32;;;;;;;23.42;7.68;;;;;;;-0.87;100.00;96267.09;5073864;28;20051;-72
2022/01/07 03:48:59;;;;;;;20.02;7.43;;;;;;;-0.91;100.00;96258.06;5073462;28;20579;-72
2022/01/07 03:51:24;;;;;;;25.15;7.55;;;;;;;-0.90;100.00;96262.25;5073458;28;20044;-73
2022/01/07 03:53:52;;;;;;;20.30;7.63;;;;;;;-0.94;100.00;96255.00;5073415;28;20498;-72
2022/01/07 03:56:20;;;;;;;21.27;8.10;;;;;;;-1.14;100.00;96254.53;5074255;28;20060;-74
2022/01/07 03:58:46;;;;;;;;;;;;;;;-1.20;100.00;96255.16;5072654;28;20044;-74
2022/01/07 04:01:13;;;;;;;22.02;7.65;;;;;;;-1.07;100.00;96260.66;5072618;28;19966;-73
2022/01/07 04:03:40;;;;;;;21.23;7.78;;;;;;;-1.09;100.00;96247.91;5074106;28;20041;-73
2022/01/07 04:06:06;;;;;;;23.50;8.38;;;;;;;-1.01;100.00;96260.00;5074089;28;20467;-73
2022/01/07 04:08:31;;;;;;;22.27;7.38;;;;;;;-0.99;100.00;96255.47;5073767;28;20045;-72
2022/01/07 04:10:57;;;;;;;20.83;7.18;;;;;;;-0.82;100.00;96254.50;5073992;28;20052;-73
2022/01/07 04:13:23;;;;;;;19.35;7.18;;;;;;;-0.95;100.00;96249.03;5073942;28;20048;-73
2022/01/07 04:15:49;;;;;;;26.05;8.88;;;;;;;-0.94;100.00;96249.84;5076610;28;20046;-73
2022/01/07 04:18:14;;;;;;;19.77;7.53;;;;;;;-0.87;100.00;96236.09;5080285;28;20044;-72
2022/01/07 04:20:42;;;;;;;18.17;6.93;;;;;;;-1.06;100.00;96257.09;5078992;28;20037;-73
2022/01/07 04:23:09;;;;;;;25.13;8.05;;;;;;;-0.87;100.00;96251.59;5078429;28;20036;-75
2022/01/07 04:25:35;;;;;;;24.08;8.02;;;;;;;-0.88;100.00;96262.09;5077761;28;20056;-72
2022/01/07 04:28:04;;;;;;;24.88;9.00;;;;;;;-1.04;100.00;96254.34;5077119;28;20051;-73
2022/01/07 04:30:33;;;;;;;18.73;7.28;;;;;;;-1.01;100.00;96275.50;5077132;28;20060;-73
2022/01/07 04:32:58;;;;;;;26.10;8.02;;;;;;;-0.96;100.00;96272.44;5077278;28;20055;-72
2022/01/07 04:35:25;;;;;;;22.80;7.85;;;;;;;-1.17;100.00;96280.66;5076480;28;20059;-73
2022/01/07 04:37:54;;;;;;;19.63;7.00;;;;;;;-1.02;100.00;96275.66;5091449;28;20032;-73
2022/01/07 04:40:21;;;;;;;24.92;7.75;;;;;;;-1.05;100.00;96276.78;5083240;28;20268;-72
2022/01/07 04:42:47;;;;;;;21.25;7.65;;;;;;;-1.01;100.00;96275.50;5076213;28;20040;-72
2022/01/07 04:45:13;;;;;;;22.55;7.55;;;;;;;-0.91;99.77;96276.16;5076074;28;20041;-72
2022/01/07 04:47:40;;;;;;;25.30;8.98;;;;;;;-0.90;99.70;96272.59;5076229;28;20529;-72
2022/01/07 04:50:09;;;;;;;20.02;7.47;;;;;;;-0.93;99.35;96278.06;5076340;28;20045;-73
2022/01/07 04:52:34;;;;;;;20.40;8.35;;;;;;;-1.03;99.22;96277.44;5076189;28;20059;-73
2022/01/07 04:55:02;;;;;;;20.98;7.95;;;;;;;-1.10;99.34;96281.63;5075519;28;20048;-73
2022/01/07 04:57:27;;;;;;;20.77;7.25;;;;;;;-1.10;99.43;96274.69;5075686;28;20037;-73
2022/01/07 04:59:55;;;;;;;19.55;6.95;;;;;;;-1.15;98.49;96289.03;5076195;28;20052;-73
2022/01/07 05:02:21;;;;;;;20.40;6.90;;;;;;;-1.26;98.84;96291.94;5076116;28;20041;-73
2022/01/07 05:04:47;;;;;;;19.23;7.07;;;;;;;-1.20;98.20;96276.63;5071762;22;20373;-68
2022/01/07 05:07:12;;;;;;;19.88;6.95;;;;;;;-1.22;98.26;96264.84;5053286;28;20053;-67
2022/01/07 05:09:38;;;;;;;18.73;7.47;;;;;;;-1.34;98.99;96272.91;5053533;28;20049;-67
2022/01/07 05:12:09;;;;;;;18.70;7.28;;;;;;;-1.29;99.12;96269.03;5053152;28;20080;-67
2022/01/07 05:14:34;;;;;;;19.77;7.30;;;;;;;-1.33;98.37;96255.66;5052740;28;20123;-67
2022/01/07 05:17:02;;;;;;;19.38;6.28;;;;;;;-1.28;97.31;96265.50;5053028;28;20132;-66
2022/01/07 05:19:28;;;;;;;;;;;;;;;-1.29;97.74;96269.03;5053791;28;20045;-67
2022/01/07 05:21:53;;;;;;;17.45;6.30;;;;;;;-1.17;97.08;96258.25;5053332;28;19971;-67
2022/01/07 05:24:19;;;;;;;23.27;6.63;;;;;;;-1.04;97.15;96262.91;5053183;28;20045;-67
2022/01/07 05:26:44;;;;;;;21.13;6.65;;;;;;;-1.33;96.95;96266.78;5052780;28;20041;-68
2022/01/07 05:29:11;;;;;;;18.80;6.63;;;;;;;-1.27;97.95;96269.69;5053420;28;20064;-66
2022/01/07 05:31:39;;;;;;;20.40;8.02;;;;;;;-1.29;97.80;96261.28;5053493;28;20081;-66
2022/01/07 05:34:05;;;;;;;18.77;7.13;;;;;;;-1.18;97.50;96268.72;5053108;28;20037;-66
2022/01/07 05:36:30;;;;;;;23.27;7.45;;;;;;;-1.20;97.67;96257.75;5053066;28;20135;-67
2022/01/07 05:38:56;;;;;;;24.30;7.72;;;;;;;-1.07;96.66;96253.72;5053211;28;20133;-67
2022/01/07 05:41:21;;;;;;;18.70;7.45;;;;;;;-1.04;97.26;96255.16;5053068;28;20128;-67
2022/01/07 05:43:47;;;;;;;19.38;7.28;;;;;;;-0.92;95.86;96253.06;5053182;28;20040;-67
2022/01/07 05:46:17;;;;;;;22.13;7.97;;;;;;;-0.99;96.78;96257.25;5053513;28;20087;-67
2022/01/07 05:48:43;;;;;;;20.92;6.97;;;;;;;-0.99;96.67;96257.25;5053908;28;20045;-67
2022/01/07 05:51:08;;;;;;;20.77;7.07;;;;;;;-0.88;96.67;96260.31;5054953;28;20443;-67
2022/01/07 05:53:34;;;;;;;19.02;6.97;;;;;;;-0.94;97.23;96250.66;5054455;28;20044;-68
2022/01/07 05:56:00;;;;;;;22.27;8.23;;;;;;;-0.97;97.92;96251.00;5054453;28;20076;-67
2022/01/07 05:58:25;;;;;;;21.52;7.75;;;;;;;-0.81;96.77;96250.97;5054173;28;20067;-67
2022/01/07 06:00:53;;;;;;;21.13;7.03;;;;;;;-0.82;96.86;96249.31;5053973;28;20099;-67
2022/01/07 06:03:20;;;;;;;17.55;6.18;;;;;;;-0.89;97.64;96243.22;5053496;28;20044;-67
2022/01/07 06:05:46;;;;;;;20.80;7.10;;;;;;;-0.80;97.86;96247.41;5052758;28;20037;-67
2022/01/07 06:08:11;;;;;;;20.77;7.45;;;;;;;-0.89;97.82;96243.22;5051731;28;20102;-67
2022/01/07 06:10:37;;;;;;;20.90;7.45;;;;;;;-0.78;97.15;96249.00;5052042;28;20061;-67
2022/01/07 06:13:03;;;;;;;21.33;7.05;;;;;;;-0.84;97.60;96250.47;5051858;28;20044;-67
2022/01/07 06:15:28;;;;;;;20.20;6.90;;;;;;;-1.00;97.82;96246.13;5051643;28;20049;-66
2022/01/07 06:17:54;;;;;;;19.83;7.35;;;;;;;-1.06;97.26;96250.16;5052019;28;20522;-66
2022/01/07 06:20:23;;;;;;;19.40;7.60;;;;;;;-0.99;96.71;96247.75;5051561;28;20045;-68
2022/01/07 06:22:49;;;;;;;19.42;7.13;;;;;;;-0.98;96.91;96248.53;5052024;28;20040;-66
2022/01/07 06:25:14;;;;;;;20.70;6.32;;;;;;;-0.94;96.99;96247.25;5050277;28;20047;-68
2022/01/07 06:27:40;;;;;;;17.98;6.28;;;;;;;-0.93;97.90;96244.50;5052479;28;20067;-67
2022/01/07 06:30:09;;;;;;;17.40;6.45;;;;;;;-0.86;96.17;96245.47;5052062;28;20037;-67
2022/01/07 06:32:35;;;;;;;19.08;6.82;;;;;;;-0.65;95.96;96246.72;5052724;28;20408;-67
2022/01/07 06:35:01;;;;;;;19.63;7.05;;;;;;;-0.72;95.88;96240.59;5052422;28;20044;-66
2022/01/07 06:37:28;;;;;;;16.98;6.55;;;;;;;-0.73;96.75;96237.22;5051830;28;20602;-67
2022/01/07 06:39:54;;;;;;;17.90;6.45;;;;;;;-0.63;95.74;96249.97;5051718;28;20554;-67
2022/01/07 06:42:20;;;;;;;16.70;5.80;;;;;;;-0.65;95.30;96241.56;5050315;28;20079;-67
2022/01/07 06:44:46;;;;;;;17.05;6.53;;;;;;;-0.81;95.95;96253.56;5051456;28;20139;-67
2022/01/07 06:47:11;;;;;;;18.88;7.03;;;;;;;-0.66;95.30;96245.13;5051681;28;20563;-67
2022/01/07 06:49:37;;;;;;;17.70;6.47;;;;;;;-0.77;96.14;96245.47;5050388;28;20089;-67
2022/01/07 06:52:06;;;;;;;21.25;7.32;;;;;;;-0.72;95.96;96251.75;5051722;28;20157;-67
2022/01/07 06:54:35;;;;;;;20.70;7.22;;;;;;;-0.71;96.05;96249.97;5051359;28;20530;-67
2022/01/07 06:57:01;;;;;;;17.83;6.72;;;;;;;-0.82;95.86;96248.53;5051755;28;20044;-67
2022/01/07 06:59:27;;;;;;;18.45;7.20;;;;;;;-0.74;95.83;96250.31;5051711;28;20043;-67
2022/01/07 07:01:53;;;;;;;18.98;7.78;;;;;;;-0.72;95.68;96244.00;5050174;28;20364;-67
2022/01/07 07:04:18;;;;;;;17.35;6.75;;;;;;;-0.55;95.38;96250.72;5051382;28;20099;-67
2022/01/07 07:06:44;;;;;;;19.38;7.03;;;;;;;-0.69;95.51;96243.69;5051379;28;20049;-67
2022/01/07 07:09:10;;;;;;;17.20;6.43;;;;;;;-0.58;95.29;96245.91;5050145;28;20045;-67
2022/01/07 07:11:39;;;;;;;18.50;6.93;;;;;;;-0.63;95.49;96244.78;5051600;28;20128;-68
2022/01/07 07:14:05;;;;;;;19.95;6.70;;;;;;;-0.58;95.22;96242.53;5051240;28;20040;-67
2022/01/07 07:16:31;;;;;;;19.10;6.57;;;;;;;-0.46;95.44;96237.81;5050984;28;20040;-67
2022/01/07 07:18:56;;;;;;;15.80;5.90;;;;;;;-0.47;94.96;96231.03;5049931;28;20049;-67
2022/01/07 07:21:25;;;;;;;17.95;7.32;;;;;;;-0.24;94.31;96242.25;5049724;28;20480;-67
2022/01/07 07:23:52;;;;;;;;;;;;;;;-0.37;93.98;96232.44;5051889;28;20052;-67
2022/01/07 07:26:18;;;;;;;15.73;6.15;;;;;;;-0.44;93.64;96233.25;5051015;28;20303;-67
2022/01/07 07:28:46;;;;;;;16.88;7.15;;;;;;;-0.44;93.64;96230.69;5051594;28;20576;-66
2022/01/07 07:31:15;;;;;;;18.00;7.03;;;;;;;-0.31;93.52;96233.56;5053733;28;20064;-67
2022/01/07 07:36:27;;;;;;;19.50;8.20;;;;;;;-0.35;93.74;96237.44;5055033;28;20045;-67
2022/01/07 07:38:55;;;;;;;20.00;7.75;;;;;;;-0.32;92.69;96242.28;5052142;28;20566;-67
2022/01/07 07:41:21;;;;;;;17.98;7.75;;;;;;;-0.25;93.21;96239.84;5050398;28;20512;-67
2022/01/07 07:43:49;;;;;;;18.70;7.40;;;;;;;-0.12;92.24;96240.91;5050039;28;20136;-68
2022/01/07 07:46:15;;;;;;;16.83;6.53;;;;;;;-0.32;92.35;96234.53;5051149;28;20055;-67
2022/01/07 07:48:41;;;;;;;18.17;7.60;;;;;;;-0.27;91.95;96225.31;5051152;28;20500;-67
2022/01/07 07:51:06;;;;;;;16.65;7.25;;;;;;;-0.23;91.88;96243.84;5055370;28;20139;-67
2022/01/07 07:53:32;;;;;;;19.27;7.90;;;;;;;-0.18;91.44;96235.59;5055189;28;20041;-67
2022/01/07 07:55:58;;;;;;;17.58;7.22;;;;;;;-0.15;91.33;96235.28;5055347;28;20072;-67
2022/01/07 07:58:27;;;;;;;18.08;7.13;;;;;;;-0.25;91.98;96234.66;5055256;28;20041;-68
2022/01/07 08:00:54;;;;;;;15.63;6.88;;;;;;;-0.37;92.14;96235.03;5055030;28;20404;-67
2022/01/07 08:03:23;;;;;;;17.80;7.47;;;;;;;-0.25;91.89;96237.25;5054824;28;20044;-67
2022/01/07 08:05:51;;;;;;;18.95;7.85;;;;;;;-0.27;91.97;96238.22;5055017;28;20044;-67
2022/01/07 08:08:17;;;;;;;17.30;7.35;;;;;;;-0.50;92.12;96232.16;5055459;28;20437;-68
2022/01/07 08:10:55;;;;;;;17.45;7.43;;;;;;;-0.43;92.11;96233.13;5055434;28;20072;-68
2022/01/07 08:16:00;;;;;;;18.17;7.63;;;;;;;-0.20;91.31;96227.22;5055014;28;20114;-68
2022/01/07 08:18:27;;;;;;;17.95;6.68;;;;;;;-0.10;90.74;96220.06;5055015;28;20531;-68
2022/01/07 08:20:53;;;;;;;15.27;6.45;;;;;;;-0.31;90.18;96218.84;5055103;28;20114;-67
2022/01/07 08:23:19;;;;;;;15.88;7.07;;;;;;;-0.35;90.45;96221.94;5054792;28;20061;-67
2022/01/07 08:25:46;;;;;;;19.02;7.35;;;;;;;-0.34;91.07;96224.34;5054582;28;20098;-68
2022/01/07 08:28:13;;;;;;;16.92;7.03;;;;;;;-0.42;91.13;96221.81;5055045;28;20123;-67
2022/01/07 08:30:59;;;;;;;15.02;6.38;;;;;;;-0.37;91.09;96216.94;5053587;28;20037;-68
2022/01/07 08:36:11;;;;;;;15.43;6.18;;;;;;;-0.35;90.61;96209.81;5054395;28;20145;-68
2022/01/07 08:38:39;;;;;;;15.00;5.90;;;;;;;-0.37;89.44;96200.63;5053817;28;20052;-67
2022/01/07 08:41:06;;;;;;;14.50;6.35;;;;;;;-0.49;88.90;96202.75;5053789;28;20645;-68
2022/01/07 08:43:31;;;;;;;16.27;6.15;;;;;;;-0.49;89.37;96192.41;5053912;28;20116;-67
2022/01/07 08:45:57;;;;;;;13.98;5.18;;;;;;;-0.55;89.63;96203.41;5053092;28;20041;-68
2022/01/07 08:48:22;;;;;;;18.02;6.90;;;;;;;-0.43;89.35;96207.28;5053357;28;20175;-68
2022/01/07 08:50:49;;;;;;;16.13;5.95;;;;;;;-0.40;87.40;96206.94;5053465;28;20040;-68
2022/01/07 08:53:15;;;;;;;15.85;6.35;;;;;;;-0.22;86.72;96203.31;5053065;28;20186;-67
2022/01/07 08:55:40;;;;;;;14.38;5.40;;;;;;;-0.04;86.48;96186.59;5052883;28;20543;-68
2022/01/07 08:58:06;;;;;;;17.40;5.75;;;;;;;-0.04;85.42;96201.28;5053462;28;20079;-67
2022/01/07 09:00:32;;;;;;;12.88;4.75;;;;;;;-0.11;85.54;96188.25;5052765;28;20045;-68
2022/01/07 09:02:58;;;;;;;12.55;5.25;;;;;;;-0.25;85.31;96182.97;5053625;28;20053;-68
2022/01/07 09:05:24;;;;;;;12.52;5.22;;;;;;;0.01;85.96;96178.31;5053017;28;20044;-68
2022/01/07 09:07:50;;;;;;;13.13;4.97;;;;;;;-0.08;84.59;96174.16;5053013;28;20151;-67
2022/01/07 09:10:16;;;;;;;13.57;4.78;;;;;;;-0.09;85.90;96177.72;5053527;28;20053;-69
2022/01/07 09:12:44;;;;;;;11.68;4.30;;;;;;;-0.03;85.56;96174.44;5053284;28;20455;-68
2022/01/07 09:15:10;;;;;;;12.38;4.60;;;;;;;0.06;84.98;96170.06;5052958;28;20044;-68
2022/01/07 09:17:36;;;;;;;13.40;5.20;;;;;;;0.03;85.68;96175.56;5054703;28;20462;-70
2022/01/07 09:20:03;;;;;;;11.95;4.57;;;;;;;0.17;85.63;96161.91;5057437;28;20120;-68
2022/01/07 09:22:28;;;;;;;12.95;4.88;;;;;;;-0.01;85.71;96155.19;5055085;28;20053;-68
2022/01/07 09:24:55;;;;;;;14.18;5.50;;;;;;;0.08;85.59;96173.25;5053922;28;20045;-68
2022/01/07 09:27:21;;;;;;;11.05;4.22;;;;;;;-0.05;85.12;96174.63;5053169;28;20064;-69
2022/01/07 09:29:46;;;;;;;14.05;4.80;;;;;;;-0.11;84.81;96187.41;5053267;28;20083;-68
2022/01/07 09:32:12;;;;;;;12.75;4.88;;;;;;;-0.20;84.75;96181.50;5052973;28;20508;-68
2022/01/07 09:34:38;;;;;;;11.82;4.50;;;;;;;0.02;84.42;96179.91;5053898;28;20097;-68
2022/01/07 09:37:05;;;;;;;11.00;4.35;;;;;;;-0.10;83.80;96181.28;5052431;28;20448;-67
2022/01/07 09:39:33;;;;;;;12.30;4.80;;;;;;;-0.08;84.22;96189.66;5054118;28;20127;-68
2022/01/07 09:42:00;;;;;;;;;;;;;;;0.09;83.89;96196.34;5052701;28;20052;-68
2022/01/07 09:44:27;;;;;;;10.55;4.40;;;;;;;0.20;84.06;96193.38;5053380;28;20003;-69
2022/01/07 09:46:53;;;;;;;13.25;4.80;;;;;;;0.19;83.35;96196.94;5053318;28;20048;-68
2022/01/07 09:49:18;;;;;;;12.68;5.18;;;;;;;0.19;82.68;96202.13;5053107;28;20048;-68
2022/01/07 09:51:44;;;;;;;10.20;4.00;;;;;;;0.09;83.35;96192.97;5053277;28;20041;-68
2022/01/07 09:54:12;;;;;;;11.15;4.28;;;;;;;0.14;83.35;96188.91;5052822;28;20068;-67
2022/01/07 09:56:41;;;;;;;10.55;4.47;;;;;;;0.28;82.25;96189.16;5052653;28;20095;-69
2022/01/07 09:59:09;;;;;;;11.82;4.65;;;;;;;0.31;82.40;96193.97;5053249;28;20053;-68
2022/01/07 10:01:52;;;;;;;12.45;4.93;;;;;;;0.26;82.90;96186.72;5052839;28;20056;-70
2022/01/07 10:04:25;;;;;;;12.95;5.47;;;;;;;0.33;83.20;96186.84;5053225;28;20037;-68
2022/01/07 10:07:09;;;;;;;13.20;4.72;;;;;;;0.35;82.36;96190.06;5054227;28;20308;-69
2022/01/07 10:09:38;;;;;;;12.45;4.85;;;;;;;0.46;82.58;96182.69;5054334;28;20131;-68
2022/01/07 10:12:04;;;;;;;12.20;5.25;;;;;;;0.25;82.19;96177.34;5054202;28;20048;-68
2022/01/07 10:14:31;;;;;;;12.73;5.13;;;;;;;0.40;83.25;96170.47;5052621;28;20049;-68
2022/01/07 10:16:59;;;;;;;11.53;4.13;;;;;;;0.20;82.80;96161.53;5053375;28;20567;-68
2022/01/07 10:19:29;;;;;;;12.20;4.93;;;;;;;0.19;82.03;96171.09;5052720;28;20273;-68
2022/01/07 10:21:56;;;;;;;12.63;5.20;;;;;;;0.33;83.07;96156.59;5052173;28;20048;-68
2022/01/07 10:24:24;;;;;;;13.13;5.55;;;;;;;0.46;82.15;96156.03;5050904;28;20124;-68
2022/01/07 10:27:04;;;;;;;;;;;;;;;0.59;82.18;96155.41;5052350;28;20504;-68
2022/01/07 10:29:32;;;;;;;14.55;4.88;;;;;;;0.76;81.57;96139.59;5052076;28;19927;-68
2022/01/07 10:32:21;;;;;;;12.27;5.03;;;;;;;0.67;82.08;96147.59;5052198;28;20128;-68
2022/01/07 10:35:01;;;;;;;13.43;5.35;;;;;;;0.57;81.37;96140.06;5051633;28;20033;-68
2022/01/07 10:37:29;;;;;;;14.00;4.65;;;;;;;0.78;80.22;96142.81;5052224;28;20139;-68
2022/01/07 10:39:54;;;;;;;12.77;5.35;;;;;;;0.83;80.80;96131.13;5051571;28;20111;-69
2022/01/07 10:42:22;;;;;;;12.98;5.40;;;;;;;0.73;81.25;96132.16;5051360;28;20554;-68
2022/01/07 10:45:03;;;;;;;14.43;6.20;;;;;;;0.76;81.25;96131.81;5051097;28;20058;-71
2022/01/07 10:47:32;;;;;;;13.55;6.03;;;;;;;0.98;81.68;96124.19;5051714;28;20103;-68
2022/01/07 10:50:13;;;;;;;12.20;5.30;;;;;;;0.93;81.04;96121.31;5051247;28;20091;-68
2022/01/07 10:52:41;;;;;;;12.70;5.57;;;;;;;0.99;80.28;96120.59;5051076;28;20045;-69
2022/01/07 10:55:09;;;;;;;13.32;4.93;;;;;;;0.99;80.46;96110.25;5050843;28;20037;-68
2022/01/07 10:57:41;;;;;;;12.18;5.50;;;;;;;0.82;80.47;96098.44;5050778;28;20041;-67
2022/01/07 11:00:11;;;;;;;13.18;5.63;;;;;;;1.00;80.48;96097.09;5049533;28;20461;-68
2022/01/07 11:02:36;;;;;;;14.32;5.82;;;;;;;0.96;80.90;96100.22;5050953;28;20115;-68
2022/01/07 11:05:03;;;;;;;14.73;6.45;;;;;;;0.98;81.64;96104.25;5073892;22;20060;-74
2022/01/07 11:07:29;;;;;;;13.98;5.80;;;;;;;1.09;81.18;96105.59;5058334;28;20057;-74
2022/01/07 11:09:56;;;;;;;16.17;6.20;;;;;;;0.87;80.67;96102.09;5058878;28;20618;-74
2022/01/07 11:12:22;;;;;;;13.25;5.57;;;;;;;0.97;81.87;96112.19;5057227;28;20075;-74
2022/01/07 11:14:51;;;;;;;13.75;5.72;;;;;;;0.90;81.88;96095.75;5056713;28;20065;-74
2022/01/07 11:17:21;;;;;;;;;;;;;;;0.83;82.10;96089.69;5057334;28;20045;-74
2022/01/07 11:19:52;;;;;;;14.90;5.80;;;;;;;0.78;82.52;96090.22;5056847;28;19956;-72
2022/01/07 11:22:19;;;;;;;13.85;5.78;;;;;;;0.75;82.93;96093.97;5057061;28;20064;-74
2022/01/07 11:24:51;;;;;;;12.82;5.63;;;;;;;0.81;82.59;96091.63;5055488;28;20428;-75
2022/01/07 11:27:21;;;;;;;16.70;6.72;;;;;;;0.75;82.94;96077.63;5054292;28;20065;-74
2022/01/07 11:30:11;;;;;;;15.57;7.00;;;;;;;0.78;83.82;96078.06;5054795;28;20558;-74
2022/01/07 11:32:42;;;;;;;17.08;7.85;;;;;;;0.66;84.58;96083.88;5056311;28;20090;-75
2022/01/07 11:35:41;;;;;;;15.70;6.80;;;;;;;0.83;84.37;96074.94;5054557;28;20053;-73